Time;durP1;ratioP1;P1;durP2;ratioP2;P2;SDS_P1;SDS_P2;PMS_P1;PMS_P2;Temp;Humidity;BMP_temperature;BMP_pressure;BME280_temperature;BME280_humidity;BME280_pressure;Samples;Min_cycle;Max_cycle;Signal;HPM_P1;HPM_P2
2023/09/03 00:01:01;;;;;;;2.13;1.90;;;18.70;80.50;;;;;;5033686;28;20091;-62
2023/09/03 00:03:26;;;;;;;2.53;2.30;;;18.70;80.50;;;;;;5030761;28;20026;-62
2023/09/03 00:05:56;;;;;;;3.72;2.13;;;18.70;80.50;;;;;;5035398;28;20482;-62
2023/09/03 00:08:23;;;;;;;2.20;2.05;;;18.60;80.50;;;;;;5034737;28;20025;-63
2023/09/03 00:10:50;;;;;;;3.05;2.03;;;18.60;80.60;;;;;;5030858;28;20044;-63
2023/09/03 00:13:15;;;;;;;2.25;1.73;;;18.50;80.60;;;;;;5031642;28;20056;-62
2023/09/03 00:15:41;;;;;;;5.97;1.92;;;18.50;80.70;;;;;;5033439;28;20037;-62
2023/09/03 00:18:08;;;;;;;3.25;2.00;;;18.40;80.80;;;;;;5024382;28;20128;-63
2023/09/03 00:20:34;;;;;;;2.85;1.70;;;18.40;81.10;;;;;;5024170;28;20496;-61
2023/09/03 00:22:59;;;;;;;3.30;2.08;;;18.30;81.20;;;;;;5026911;28;20064;-63
2023/09/03 00:25:25;;;;;;;2.55;2.00;;;18.40;81.30;;;;;;5027084;28;20056;-63
2023/09/03 00:27:50;;;;;;;2.60;1.90;;;18.40;81.30;;;;;;5025655;28;20052;-63
2023/09/03 00:30:16;;;;;;;2.20;2.00;;;18.40;81.30;;;;;;5027776;28;20520;-63
2023/09/03 00:32:42;;;;;;;3.08;1.85;;;18.30;81.20;;;;;;5025284;28;20452;-63
2023/09/03 00:35:07;;;;;;;3.38;2.00;;;18.30;81.20;;;;;;5024665;28;20115;-62
2023/09/03 00:37:33;;;;;;;3.20;1.92;;;18.20;81.20;;;;;;5029029;28;20048;-63
2023/09/03 00:39:59;;;;;;;2.10;1.90;;;18.20;81.30;;;;;;5027550;28;20033;-63
2023/09/03 00:42:24;;;;;;;2.65;2.10;;;18.20;81.50;;;;;;5025906;28;20379;-63
2023/09/03 00:44:50;;;;;;;2.40;2.20;;;18.20;81.60;;;;;;5028572;28;20608;-62
2023/09/03 00:47:18;;;;;;;3.88;2.00;;;18.10;81.50;;;;;;5027230;28;20041;-62
2023/09/03 00:49:44;;;;;;;1.73;1.63;;;18.10;81.70;;;;;;5025245;28;20037;-61
2023/09/03 00:52:11;;;;;;;1.95;1.80;;;18.10;81.70;;;;;;5025547;28;20095;-62
2023/09/03 00:54:37;;;;;;;1.88;1.77;;;18.10;81.80;;;;;;5026252;28;20401;-62
2023/09/03 00:57:03;;;;;;;2.72;2.10;;;18.10;82.00;;;;;;5026019;28;20040;-62
2023/09/03 00:59:30;;;;;;;3.25;1.90;;;18.00;82.00;;;;;;5021748;28;20045;-62
2023/09/03 01:01:56;;;;;;;3.15;1.90;;;18.00;82.00;;;;;;5022987;28;20040;-62
2023/09/03 01:04:22;;;;;;;2.88;1.80;;;18.10;82.00;;;;;;5027952;28;20549;-62
2023/09/03 01:06:49;;;;;;;2.75;2.00;;;18.00;81.80;;;;;;5028599;28;20140;-63
2023/09/03 01:09:15;;;;;;;2.20;1.92;;;18.00;81.70;;;;;;5026290;28;20025;-62
2023/09/03 01:11:46;;;;;;;3.25;1.80;;;18.00;81.80;;;;;;5031007;28;20034;-63
2023/09/03 01:14:40;;;;;;;2.42;2.00;;;17.90;82.40;;;;;;5033309;28;20025;-63
2023/09/03 01:17:34;;;;;;;2.15;1.92;;;17.90;82.90;;;;;;5030207;28;20033;-62
2023/09/03 01:20:12;;;;;;;2.67;1.80;;;17.80;83.10;;;;;;5028122;28;20123;-63
2023/09/03 01:22:56;;;;;;;2.17;1.98;;;17.80;82.90;;;;;;5026996;28;20045;-63
2023/09/03 01:25:40;;;;;;;4.07;2.15;;;17.80;83.40;;;;;;5029334;28;20040;-63
2023/09/03 01:28:21;;;;;;;2.13;1.80;;;17.70;83.50;;;;;;5026601;28;20044;-63
2023/09/03 01:30:48;;;;;;;2.00;1.80;;;17.70;83.10;;;;;;5025781;28;20284;-63
2023/09/03 01:33:16;;;;;;;1.95;1.80;;;17.70;82.80;;;;;;5026623;28;20436;-63
2023/09/03 01:35:43;;;;;;;2.10;1.80;;;17.70;83.10;;;;;;5027245;28;20029;-63
2023/09/03 01:38:09;;;;;;;3.08;2.05;;;17.70;83.00;;;;;;5027007;28;20036;-62
2023/09/03 01:40:35;;;;;;;3.35;1.70;;;17.70;83.10;;;;;;5024962;28;20041;-62
2023/09/03 01:43:00;;;;;;;2.13;1.92;;;17.70;83.00;;;;;;5027175;28;20035;-62
2023/09/03 01:45:37;;;;;;;3.33;1.85;;;17.70;82.90;;;;;;5024874;28;20164;-62
2023/09/03 01:48:18;;;;;;;2.30;2.10;;;17.70;83.00;;;;;;5028694;28;20045;-62
2023/09/03 01:50:52;;;;;;;1.83;1.65;;;17.70;83.20;;;;;;5024491;28;20033;-62
2023/09/03 01:53:34;;;;;;;3.58;2.13;;;17.70;82.70;;;;;;5025161;28;20536;-62
2023/09/03 01:56:02;;;;;;;4.75;2.08;;;17.70;82.70;;;;;;5023897;28;20041;-63
2023/09/03 01:58:31;;;;;;;3.70;2.00;;;17.70;82.50;;;;;;5024094;28;20037;-62
2023/09/03 02:00:57;;;;;;;2.38;2.17;;;17.60;82.70;;;;;;5028663;28;20520;-63
2023/09/03 02:03:26;;;;;;;3.40;1.92;;;17.60;82.90;;;;;;5026082;28;20493;-63
2023/09/03 02:05:52;;;;;;;1.73;1.63;;;17.50;83.10;;;;;;5022064;28;20095;-62
2023/09/03 02:08:17;;;;;;;3.50;1.98;;;17.40;83.30;;;;;;5029710;28;20034;-62
2023/09/03 02:10:43;;;;;;;2.10;1.90;;;17.40;83.60;;;;;;5024828;28;20037;-62
2023/09/03 02:13:09;;;;;;;2.08;1.83;;;17.40;83.90;;;;;;5024734;28;20041;-62
2023/09/03 02:15:34;;;;;;;3.38;1.70;;;17.30;84.00;;;;;;5029952;28;20083;-62
2023/09/03 02:18:00;;;;;;;2.92;1.98;;;17.20;84.10;;;;;;5028752;28;20117;-61
2023/09/03 02:20:25;;;;;;;5.35;1.95;;;17.20;84.30;;;;;;5030549;28;20098;-63
2023/09/03 02:22:51;;;;;;;3.10;1.88;;;17.20;84.50;;;;;;5025829;28;20029;-63
2023/09/03 02:25:16;;;;;;;2.30;2.10;;;17.20;84.60;;;;;;5031733;28;20489;-61
2023/09/03 02:27:42;;;;;;;2.08;1.88;;;17.20;84.60;;;;;;5033617;28;20432;-63
2023/09/03 02:30:08;;;;;;;2.97;1.95;;;17.20;84.20;;;;;;5028874;28;20560;-63
2023/09/03 02:32:33;;;;;;;3.28;1.85;;;17.30;84.30;;;;;;5028706;28;20072;-62
2023/09/03 02:34:59;;;;;;;3.38;1.92;;;17.20;84.20;;;;;;5031807;28;20155;-61
2023/09/03 02:37:24;;;;;;;3.10;1.92;;;17.20;84.30;;;;;;5032442;28;20033;-63
2023/09/03 02:39:50;;;;;;;1.52;1.42;;;17.20;84.50;;;;;;5028032;28;20021;-62
2023/09/03 02:42:16;;;;;;;2.00;1.80;;;17.20;84.60;;;;;;5027902;28;20184;-63
2023/09/03 02:44:41;;;;;;;1.80;1.70;;;17.20;84.60;;;;;;5028158;28;20039;-63
2023/09/03 02:47:07;;;;;;;3.03;1.90;;;17.30;84.60;;;;;;5028435;28;20064;-62
2023/09/03 02:49:33;;;;;;;2.17;1.70;;;17.30;84.40;;;;;;5031844;28;20415;-63
2023/09/03 02:51:58;;;;;;;3.20;2.00;;;17.30;84.10;;;;;;5027188;28;20116;-62
2023/09/03 02:54:24;;;;;;;2.42;1.98;;;17.30;83.90;;;;;;5027735;28;20120;-63
2023/09/03 02:56:49;;;;;;;2.08;1.88;;;17.40;83.90;;;;;;5029432;28;20049;-62
2023/09/03 02:59:15;;;;;;;2.20;1.65;;;17.30;83.80;;;;;;5026265;28;20029;-64
2023/09/03 03:01:42;;;;;;;2.05;1.85;;;17.20;83.90;;;;;;5021063;28;20037;-62
2023/09/03 03:04:07;;;;;;;3.35;1.85;;;17.20;84.90;;;;;;5031303;28;20358;-63
2023/09/03 03:06:33;;;;;;;2.90;1.90;;;17.20;84.20;;;;;;5026943;28;20087;-63
2023/09/03 03:08:58;;;;;;;2.95;1.73;;;17.10;84.50;;;;;;5031677;28;20443;-62
2023/09/03 03:11:25;;;;;;;2.17;1.55;;;17.00;84.70;;;;;;5032631;28;20451;-62
2023/09/03 03:13:52;;;;;;;2.05;1.85;;;17.10;84.90;;;;;;5033985;28;20560;-62
2023/09/03 03:16:17;;;;;;;2.63;1.90;;;17.10;84.80;;;;;;5034752;28;20029;-63
2023/09/03 03:18:45;;;;;;;1.55;1.42;;;17.10;84.70;;;;;;5033338;28;20073;-62
2023/09/03 03:21:14;;;;;;;2.58;1.70;;;17.10;84.60;;;;;;5036030;28;20036;-62
2023/09/03 03:23:40;;;;;;;1.85;1.75;;;17.20;84.50;;;;;;5032613;28;20077;-63
2023/09/03 03:26:05;;;;;;;2.00;1.80;;;17.20;84.40;;;;;;5033763;28;20552;-62
2023/09/03 03:28:33;;;;;;;3.75;1.77;;;17.20;84.40;;;;;;5033709;28;20583;-62
2023/09/03 03:31:31;;;;;;;2.45;1.80;;;17.20;84.40;;;;;;5033167;28;20052;-63
2023/09/03 03:33:57;;;;;;;2.70;1.70;;;17.30;84.80;;;;;;5034404;28;20255;-63
2023/09/03 03:36:22;;;;;;;1.77;1.50;;;17.20;83.80;;;;;;5032517;28;20041;-62
2023/09/03 03:38:48;;;;;;;1.83;1.73;;;17.30;83.80;;;;;;5024062;28;20125;-62
2023/09/03 03:41:14;;;;;;;3.30;1.85;;;17.20;83.80;;;;;;5026955;28;20043;-63
2023/09/03 03:43:42;;;;;;;2.55;1.80;;;17.20;84.00;;;;;;5027291;28;20144;-63
2023/09/03 03:46:10;;;;;;;2.92;1.70;;;17.20;84.00;;;;;;5027792;28;20038;-62
2023/09/03 03:48:36;;;;;;;1.75;1.50;;;17.20;84.00;;;;;;5028175;28;20040;-62
2023/09/03 03:51:03;;;;;;;2.67;1.67;;;17.20;83.90;;;;;;5031592;28;20078;-62
2023/09/03 03:53:28;;;;;;;3.33;1.88;;;17.20;83.80;;;;;;5025739;28;20045;-63
2023/09/03 03:55:58;;;;;;;3.58;1.75;;;17.20;83.70;;;;;;5029526;28;20099;-62
2023/09/03 03:58:25;;;;;;;2.65;1.75;;;17.20;83.70;;;;;;5023620;28;20521;-63
2023/09/03 04:00:51;;;;;;;4.10;1.80;;;17.20;83.60;;;;;;5026602;28;20048;-62
2023/09/03 04:03:16;;;;;;;2.22;1.70;;;17.20;83.40;;;;;;5029409;28;20067;-65
2023/09/03 04:05:42;;;;;;;3.35;1.90;;;17.20;83.40;;;;;;5028299;28;20535;-63
2023/09/03 04:08:07;;;;;;;1.90;1.58;;;17.10;83.40;;;;;;5029231;28;20029;-62
2023/09/03 04:10:33;;;;;;;3.97;1.80;;;17.10;83.50;;;;;;5027614;28;20116;-62
2023/09/03 04:12:58;;;;;;;2.38;1.70;;;17.00;83.60;;;;;;5021869;28;20405;-63
2023/09/03 04:15:24;;;;;;;2.17;1.80;;;17.00;83.80;;;;;;5029688;28;20041;-63
2023/09/03 04:17:49;;;;;;;2.00;1.80;;;17.00;84.10;;;;;;5027493;28;21584;-62
2023/09/03 04:20:15;;;;;;;2.10;1.90;;;17.00;84.00;;;;;;5031080;28;20451;-62
2023/09/03 04:22:41;;;;;;;2.60;1.77;;;17.00;84.00;;;;;;5027566;28;20455;-62
2023/09/03 04:25:06;;;;;;;2.28;1.75;;;17.00;83.90;;;;;;5026384;28;20029;-62
2023/09/03 04:27:32;;;;;;;2.50;1.65;;;16.90;84.00;;;;;;5031293;28;20049;-62
2023/09/03 04:29:58;;;;;;;3.05;1.90;;;16.90;84.10;;;;;;5029860;28;20108;-62
2023/09/03 04:32:23;;;;;;;3.13;2.08;;;17.00;84.20;;;;;;5026998;28;20165;-62
2023/09/03 04:34:50;;;;;;;3.22;2.00;;;17.00;84.30;;;;;;5027380;28;20037;-61
2023/09/03 04:37:16;;;;;;;3.67;2.08;;;16.90;84.10;;;;;;5031871;28;20128;-62
2023/09/03 04:39:41;;;;;;;3.40;1.98;;;16.90;84.00;;;;;;5031315;28;20128;-62
2023/09/03 04:42:07;;;;;;;3.13;1.83;;;16.90;84.00;;;;;;5032491;28;20520;-62
2023/09/03 04:44:33;;;;;;;1.95;1.65;;;16.90;84.10;;;;;;5023594;28;20742;-62
2023/09/03 04:46:59;;;;;;;2.55;1.65;;;16.90;84.20;;;;;;5027284;28;20425;-62
2023/09/03 04:49:25;;;;;;;2.85;1.67;;;16.80;84.30;;;;;;5028121;28;20040;-62
2023/09/03 04:51:50;;;;;;;1.80;1.70;;;16.90;84.60;;;;;;5028097;28;20044;-62
2023/09/03 04:54:16;;;;;;;3.47;1.90;;;16.80;84.80;;;;;;5026591;28;20035;-63
2023/09/03 04:56:41;;;;;;;2.20;2.00;;;16.80;84.90;;;;;;5029520;28;20047;-63
2023/09/03 04:59:08;;;;;;;2.10;1.90;;;16.80;85.00;;;;;;5024229;28;20025;-62
2023/09/03 05:01:34;;;;;;;2.10;1.90;;;16.70;85.20;;;;;;5025021;28;20041;-63
2023/09/03 05:03:59;;;;;;;1.80;1.60;;;16.80;85.30;;;;;;5027633;28;20532;-62
2023/09/03 05:06:25;;;;;;;1.90;1.80;;;16.80;85.50;;;;;;5026822;28;20112;-61
2023/09/03 05:08:51;;;;;;;1.70;1.60;;;16.80;85.60;;;;;;5029999;28;20056;-62
2023/09/03 05:11:17;;;;;;;2.03;1.90;;;16.90;85.60;;;;;;5032350;28;20481;-62
2023/09/03 05:13:43;;;;;;;1.60;1.50;;;16.90;85.40;;;;;;5051034;28;20080;-62
2023/09/03 05:16:08;;;;;;;3.08;1.60;;;16.90;85.30;;;;;;5035549;28;20033;-62
2023/09/03 05:18:34;;;;;;;2.60;1.60;;;17.00;85.20;;;;;;5026874;28;20041;-62
2023/09/03 05:21:07;;;;;;;2.55;1.90;;;17.00;85.20;;;;;;5025986;28;20042;-62
2023/09/03 05:23:34;;;;;;;4.60;2.00;;;17.00;85.30;;;;;;5027633;28;20060;-62
2023/09/03 05:25:59;;;;;;;1.73;1.63;;;17.10;85.00;;;;;;5025023;28;20041;-62
2023/09/03 05:28:25;;;;;;;2.45;1.85;;;17.10;85.00;;;;;;5024334;28;20026;-62
2023/09/03 05:30:50;;;;;;;1.90;1.70;;;17.10;84.90;;;;;;5021984;28;20407;-63
2023/09/03 05:33:16;;;;;;;1.98;1.77;;;17.10;84.90;;;;;;5027861;28;20068;-61
2023/09/03 05:35:42;;;;;;;2.40;1.85;;;17.20;85.00;;;;;;5028385;28;20045;-61
2023/09/03 05:38:07;;;;;;;1.88;1.77;;;17.20;85.10;;;;;;5025786;28;20041;-62
2023/09/03 05:40:33;;;;;;;2.65;2.17;;;17.20;84.90;;;;;;5028144;28;20056;-63
2023/09/03 05:42:58;;;;;;;4.13;2.10;;;17.20;84.80;;;;;;5028937;28;20455;-62
2023/09/03 05:45:24;;;;;;;2.50;2.10;;;17.20;84.80;;;;;;5026591;28;20041;-62
2023/09/03 05:47:50;;;;;;;2.63;2.20;;;17.20;85.00;;;;;;5024686;28;20455;-62
2023/09/03 05:50:15;;;;;;;2.20;2.00;;;17.20;85.20;;;;;;5026023;28;20092;-63
2023/09/03 05:52:42;;;;;;;3.33;2.05;;;17.20;85.20;;;;;;5025053;28;20041;-62
2023/09/03 05:55:08;;;;;;;2.50;1.95;;;17.30;85.30;;;;;;5028429;28;20078;-62
2023/09/03 05:57:34;;;;;;;2.58;2.25;;;17.30;85.40;;;;;;5030853;28;20036;-62
2023/09/03 06:00:00;;;;;;;2.38;2.15;;;17.30;85.40;;;;;;5028672;28;20112;-62
2023/09/03 06:02:25;;;;;;;2.33;2.13;;;17.40;85.40;;;;;;5031208;28;20420;-62
2023/09/03 06:04:51;;;;;;;3.45;2.00;;;17.40;85.40;;;;;;5031303;28;20039;-62
2023/09/03 06:07:17;;;;;;;2.75;2.42;;;17.40;85.50;;;;;;5029590;28;20069;-62
2023/09/03 06:09:42;;;;;;;4.07;2.20;;;17.40;85.50;;;;;;5031716;28;20541;-62
2023/09/03 06:12:08;;;;;;;2.10;1.90;;;17.50;85.70;;;;;;5027385;28;20084;-62
2023/09/03 06:14:34;;;;;;;2.17;1.98;;;17.50;85.90;;;;;;5036948;28;20044;-62
2023/09/03 06:17:00;;;;;;;4.00;2.30;;;17.50;86.00;;;;;;5033228;28;20523;-62
2023/09/03 06:19:25;;;;;;;3.13;2.60;;;17.50;86.10;;;;;;5032467;28;20128;-61
2023/09/03 06:21:51;;;;;;;3.95;2.38;;;17.50;87.10;;;;;;5029049;28;20497;-63
2023/09/03 06:24:16;;;;;;;4.57;2.40;;;17.60;86.50;;;;;;5031181;28;20025;-62
2023/09/03 06:26:42;;;;;;;3.47;2.40;;;17.60;86.40;;;;;;5028046;28;20128;-62
2023/09/03 06:29:08;;;;;;;2.65;2.45;;;17.70;86.60;;;;;;5028237;28;20396;-62
2023/09/03 06:31:33;;;;;;;3.95;2.78;;;17.70;86.60;;;;;;5028273;28;20049;-63
2023/09/03 06:33:59;;;;;;;2.53;2.33;;;17.80;86.70;;;;;;5029786;28;20169;-63
2023/09/03 06:36:27;;;;;;;2.50;2.30;;;17.90;86.80;;;;;;5027402;28;20060;-61
2023/09/03 06:38:53;;;;;;;3.53;2.78;;;17.90;86.70;;;;;;5028225;28;20045;-62
2023/09/03 06:41:18;;;;;;;2.50;2.30;;;18.00;86.90;;;;;;5031421;28;20030;-62
2023/09/03 06:43:44;;;;;;;3.00;2.45;;;18.00;87.10;;;;;;5031598;28;20368;-63
2023/09/03 06:46:10;;;;;;;2.53;2.25;;;18.10;87.10;;;;;;5029792;28;20038;-62
2023/09/03 06:48:36;;;;;;;2.42;2.20;;;18.10;87.30;;;;;;5026018;28;20037;-62
2023/09/03 06:51:01;;;;;;;2.78;2.58;;;18.20;87.40;;;;;;5029049;28;20033;-62
2023/09/03 06:53:27;;;;;;;4.25;2.60;;;18.20;87.50;;;;;;5030436;28;20033;-62
2023/09/03 06:55:52;;;;;;;3.05;2.35;;;18.30;87.40;;;;;;5031880;28;20040;-62
2023/09/03 06:58:18;;;;;;;3.13;2.42;;;18.40;87.50;;;;;;5026776;28;20049;-62
2023/09/03 07:00:44;;;;;;;3.08;2.40;;;18.50;87.60;;;;;;5028160;28;20648;-61
2023/09/03 07:03:09;;;;;;;2.25;2.10;;;18.60;87.40;;;;;;5025366;28;20390;-62
2023/09/03 07:05:35;;;;;;;3.10;2.40;;;18.60;87.40;;;;;;5032261;28;20044;-62
2023/09/03 07:08:00;;;;;;;3.15;2.40;;;18.70;87.40;;;;;;5029553;28;20578;-62
2023/09/03 07:10:26;;;;;;;2.85;2.58;;;18.80;87.60;;;;;;5031063;28;20029;-62
2023/09/03 07:12:52;;;;;;;2.55;2.35;;;18.90;87.60;;;;;;5032350;28;20037;-62
2023/09/03 07:15:18;;;;;;;3.70;2.63;;;19.00;87.60;;;;;;5034605;28;20060;-63
2023/09/03 07:17:43;;;;;;;2.88;2.40;;;19.00;87.40;;;;;;5031117;28;20108;-62
2023/09/03 07:20:09;;;;;;;3.30;2.55;;;19.10;87.50;;;;;;5031570;28;20481;-62
2023/09/03 07:22:35;;;;;;;6.55;2.50;;;19.20;87.30;;;;;;5026405;28;20033;-61
2023/09/03 07:25:01;;;;;;;2.95;2.60;;;19.30;87.20;;;;;;5026752;28;20037;-62
2023/09/03 07:27:26;;;;;;;2.65;2.42;;;19.40;87.20;;;;;;5028030;28;20053;-62
2023/09/03 07:29:53;;;;;;;2.95;2.70;;;19.50;87.20;;;;;;5027663;28;20033;-62
2023/09/03 07:32:21;;;;;;;3.70;2.85;;;19.60;87.10;;;;;;5029982;28;20543;-62
2023/09/03 07:34:46;;;;;;;4.03;3.53;;;19.70;87.10;;;;;;5031837;28;20129;-62
2023/09/03 07:37:12;;;;;;;3.13;2.83;;;19.70;86.90;;;;;;5031141;28;20475;-62
2023/09/03 07:39:37;;;;;;;3.50;3.20;;;19.80;86.70;;;;;;5027728;28;20584;-62
2023/09/03 07:42:03;;;;;;;3.25;2.80;;;19.90;86.60;;;;;;5030944;28;20552;-62
2023/09/03 07:44:29;;;;;;;4.00;3.03;;;20.00;86.40;;;;;;5027479;28;20044;-62
2023/09/03 07:46:54;;;;;;;4.32;2.83;;;20.10;86.40;;;;;;5026844;28;21924;-62
2023/09/03 07:49:20;;;;;;;4.28;2.85;;;20.10;86.20;;;;;;5029465;28;20044;-61
2023/09/03 07:51:45;;;;;;;3.42;2.97;;;20.30;86.40;;;;;;5033152;28;20044;-62
2023/09/03 07:54:11;;;;;;;3.38;3.08;;;20.30;86.40;;;;;;5032639;28;20507;-62
2023/09/03 07:56:36;;;;;;;3.40;3.10;;;20.40;86.40;;;;;;5030923;28;20183;-62
2023/09/03 07:59:02;;;;;;;3.03;2.80;;;20.50;86.20;;;;;;5031022;28;20044;-62
2023/09/03 08:01:28;;;;;;;3.13;2.88;;;20.60;86.00;;;;;;5028580;28;20107;-62
2023/09/03 08:03:56;;;;;;;3.65;3.05;;;20.60;86.00;;;;;;5028945;28;20060;-62
2023/09/03 08:06:21;;;;;;;3.85;3.45;;;20.70;86.00;;;;;;5028562;28;20060;-62
2023/09/03 08:08:53;;;;;;;3.58;3.28;;;20.90;86.00;;;;;;5028487;28;20061;-62
2023/09/03 08:11:19;;;;;;;4.00;3.00;;;20.90;85.70;;;;;;5025291;28;20057;-63
2023/09/03 08:13:44;;;;;;;3.10;2.85;;;21.00;85.70;;;;;;5030420;28;20084;-59
2023/09/03 08:16:10;;;;;;;3.55;3.28;;;21.10;85.50;;;;;;5028587;28;20400;-63
2023/09/03 08:18:35;;;;;;;3.33;3.03;;;21.20;85.20;;;;;;5028524;28;20060;-62
2023/09/03 08:21:01;;;;;;;3.75;3.40;;;21.30;85.10;;;;;;5027677;28;20033;-62
2023/09/03 08:23:28;;;;;;;3.58;3.13;;;21.30;85.00;;;;;;5029121;28;20037;-62
2023/09/03 08:25:53;;;;;;;4.50;2.92;;;21.40;84.60;;;;;;5023549;28;20041;-62
2023/09/03 08:28:19;;;;;;;3.72;3.30;;;21.50;84.30;;;;;;5025440;28;20042;-62
2023/09/03 08:30:44;;;;;;;4.97;3.22;;;21.50;84.10;;;;;;5024324;28;20038;-62
2023/09/03 08:33:10;;;;;;;3.05;2.80;;;21.60;83.80;;;;;;5024544;28;20053;-63
2023/09/03 08:35:38;;;;;;;2.92;2.72;;;21.70;83.60;;;;;;5027056;28;20248;-58
2023/09/03 08:38:04;;;;;;;3.33;2.53;;;21.70;83.60;;;;;;5026089;28;20033;-62
2023/09/03 08:40:30;;;;;;;3.60;2.83;;;21.80;83.50;;;;;;5025676;28;20034;-62
2023/09/03 08:42:56;;;;;;;2.65;2.45;;;21.80;83.40;;;;;;5023666;28;20033;-61
2023/09/03 08:45:23;;;;;;;3.58;2.80;;;21.90;83.30;;;;;;5033621;28;20079;-62
2023/09/03 08:47:49;;;;;;;2.58;2.25;;;21.90;83.10;;;;;;5027480;28;20057;-62
2023/09/03 08:50:16;;;;;;;6.57;2.80;;;22.00;83.20;;;;;;5034756;28;20063;-62
2023/09/03 08:52:43;;;;;;;2.90;2.70;;;22.10;83.10;;;;;;5033091;28;20041;-62
2023/09/03 08:55:10;;;;;;;3.00;2.80;;;22.20;82.80;;;;;;5027000;28;20041;-63
2023/09/03 08:57:36;;;;;;;4.22;2.60;;;22.20;82.40;;;;;;5025442;28;20037;-61
2023/09/03 09:00:06;;;;;;;4.55;2.53;;;22.30;82.30;;;;;;5027478;28;20045;-63
2023/09/03 09:02:33;;;;;;;2.58;2.38;;;22.40;82.00;;;;;;5030923;28;20095;-62
2023/09/03 09:05:00;;;;;;;2.65;2.45;;;22.50;81.90;;;;;;5032883;28;20360;-63
2023/09/03 09:07:26;;;;;;;2.80;2.50;;;22.50;81.50;;;;;;5031402;28;20049;-63
2023/09/03 09:09:54;;;;;;;2.58;2.25;;;22.60;82.10;;;;;;5029168;28;20041;-63
2023/09/03 09:12:36;;;;;;;2.30;2.10;;;22.70;81.30;;;;;;5028868;28;20033;-63
2023/09/03 09:15:04;;;;;;;2.70;2.50;;;22.70;81.00;;;;;;5030300;28;20025;-63
2023/09/03 09:17:37;;;;;;;2.45;2.22;;;22.80;80.90;;;;;;5032589;28;20041;-62
2023/09/03 09:20:05;;;;;;;2.75;2.20;;;22.90;80.30;;;;;;5032363;28;20171;-63
2023/09/03 09:22:37;;;;;;;2.60;2.20;;;23.00;79.90;;;;;;5031979;28;20079;-63
2023/09/03 09:25:03;;;;;;;2.20;2.00;;;23.00;79.70;;;;;;5031376;28;20076;-63
2023/09/03 09:27:29;;;;;;;2.20;2.00;;;23.10;79.80;;;;;;5032026;28;20563;-63
2023/09/03 09:30:14;;;;;;;2.70;2.50;;;23.10;80.30;;;;;;5030668;28;20036;-62
2023/09/03 09:32:42;;;;;;;2.50;2.30;;;23.20;79.00;;;;;;5028159;28;20033;-63
2023/09/03 09:35:08;;;;;;;3.30;2.80;;;23.30;79.30;;;;;;5028766;28;20045;-63
2023/09/03 09:37:41;;;;;;;1.88;1.77;;;23.40;78.90;;;;;;5031180;28;20046;-63
2023/09/03 09:40:08;;;;;;;2.40;2.20;;;23.40;78.70;;;;;;5029548;28;20056;-63
2023/09/03 09:42:35;;;;;;;2.17;1.98;;;23.50;78.70;;;;;;5031461;28;20037;-63
2023/09/03 09:45:01;;;;;;;2.22;1.95;;;23.60;78.60;;;;;;5029784;28;20034;-63
2023/09/03 09:47:28;;;;;;;2.65;2.45;;;23.60;78.00;;;;;;5031547;28;20045;-63
2023/09/03 09:49:54;;;;;;;2.80;2.28;;;23.70;76.70;;;;;;5029083;28;20033;-63
2023/09/03 09:52:20;;;;;;;2.78;2.58;;;23.80;77.00;;;;;;5030310;28;20108;-63
2023/09/03 09:54:47;;;;;;;2.17;2.08;;;23.80;76.30;;;;;;5031600;28;20508;-63
2023/09/03 09:57:15;;;;;;;2.53;2.33;;;23.80;76.10;;;;;;5030451;28;20505;-63
2023/09/03 09:59:42;;;;;;;1.98;1.88;;;23.90;74.90;;;;;;5029404;28;20061;-65
2023/09/03 10:02:14;;;;;;;2.20;2.00;;;23.90;75.20;;;;;;5029339;28;20036;-63
2023/09/03 10:04:45;;;;;;;2.22;1.92;;;23.90;75.20;;;;;;5034812;28;20038;-62
2023/09/03 10:07:11;;;;;;;1.80;1.70;;;24.00;75.00;;;;;;5034936;28;20123;-62
2023/09/03 10:09:41;;;;;;;2.38;1.98;;;24.00;75.40;;;;;;5029007;28;20053;-62
2023/09/03 10:12:08;;;;;;;1.98;1.88;;;24.10;75.10;;;;;;5030785;28;20079;-62
2023/09/03 10:14:35;;;;;;;3.75;2.17;;;24.10;75.40;;;;;;5034829;28;20567;-62
2023/09/03 10:17:03;;;;;;;2.35;1.98;;;24.20;75.30;;;;;;5035474;28;20041;-62
2023/09/03 10:19:47;;;;;;;1.98;1.63;;;24.30;75.60;;;;;;5021406;28;20037;-62
2023/09/03 10:22:15;;;;;;;2.63;1.90;;;24.40;74.90;;;;;;5033282;28;20036;-61
2023/09/03 10:24:43;;;;;;;2.30;2.05;;;24.40;74.90;;;;;;5031051;28;20057;-63
2023/09/03 10:27:13;;;;;;;2.15;1.90;;;24.50;73.90;;;;;;5026222;28;20570;-62
2023/09/03 10:29:39;;;;;;;2.25;1.75;;;24.60;73.90;;;;;;5034232;28;20492;-64
2023/09/03 10:32:07;;;;;;;2.63;1.50;;;24.70;73.40;;;;;;5033092;28;20051;-61
2023/09/03 10:34:36;;;;;;;1.60;1.30;;;24.70;73.30;;;;;;5031404;28;20073;-62
2023/09/03 10:37:13;;;;;;;3.10;1.52;;;24.80;72.90;;;;;;5034385;28;20033;-62
2023/09/03 10:39:40;;;;;;;2.03;1.67;;;24.90;72.00;;;;;;5032047;28;20048;-63
2023/09/03 10:42:18;;;;;;;1.58;1.48;;;25.00;72.00;;;;;;5032367;28;20037;-62
2023/09/03 10:44:49;;;;;;;1.38;1.02;;;25.00;71.80;;;;;;5032316;28;20025;-63
2023/09/03 10:47:17;;;;;;;0.95;0.95;;;25.10;71.30;;;;;;5036518;28;20137;-63
2023/09/03 10:49:44;;;;;;;1.10;0.90;;;25.20;70.30;;;;;;5031079;28;20037;-62
2023/09/03 10:52:31;;;;;;;1.42;1.10;;;25.20;69.90;;;;;;5033662;28;20045;-63
2023/09/03 10:55:13;;;;;;;1.25;0.90;;;25.30;68.60;;;;;;5035722;28;20060;-63
2023/09/03 10:57:39;;;;;;;1.48;0.70;;;25.40;68.10;;;;;;5036876;28;20038;-62
2023/09/03 11:00:05;;;;;;;1.02;0.95;;;25.40;68.60;;;;;;5035797;28;20090;-63
2023/09/03 11:02:32;;;;;;;1.20;0.98;;;25.50;68.70;;;;;;5033338;28;20037;-63
2023/09/03 11:05:20;;;;;;;0.80;0.80;;;25.50;67.40;;;;;;5033206;28;20040;-62
2023/09/03 11:08:07;;;;;;;1.05;1.00;;;25.60;66.30;;;;;;5039052;28;20044;-62
2023/09/03 11:10:35;;;;;;;1.20;0.98;;;25.60;66.80;;;;;;5031340;28;20041;-63
2023/09/03 11:13:04;;;;;;;1.17;1.08;;;25.60;67.40;;;;;;5033737;28;20607;-62
2023/09/03 11:15:30;;;;;;;1.10;1.00;;;25.70;67.60;;;;;;5035706;28;20060;-63
2023/09/03 11:17:56;;;;;;;1.58;0.98;;;25.70;66.90;;;;;;5034646;28;20465;-62
2023/09/03 11:20:35;;;;;;;1.30;1.00;;;25.80;65.70;;;;;;5035673;28;20061;-63
2023/09/03 11:23:04;;;;;;;2.00;1.08;;;25.80;65.60;;;;;;5036302;28;20041;-63
2023/09/03 11:25:37;;;;;;;1.67;0.90;;;25.80;67.00;;;;;;5034695;28;20113;-62
2023/09/03 11:28:04;;;;;;;1.25;1.15;;;25.90;66.90;;;;;;5036326;28;20029;-62
2023/09/03 11:30:30;;;;;;;0.90;0.90;;;26.00;66.80;;;;;;5035052;28;20056;-62
2023/09/03 11:32:56;;;;;;;0.75;0.75;;;26.00;66.80;;;;;;5037226;28;20025;-63
2023/09/03 11:35:23;;;;;;;0.80;0.80;;;26.10;66.90;;;;;;5037790;28;20046;-63
2023/09/03 11:37:50;;;;;;;1.00;0.73;;;26.10;66.70;;;;;;5033915;28;20033;-63
2023/09/03 11:40:17;;;;;;;1.63;0.98;;;26.20;66.30;;;;;;5034993;28;20037;-63
2023/09/03 11:42:44;;;;;;;1.80;1.15;;;26.30;66.10;;;;;;5034718;28;20029;-66
2023/09/03 11:45:11;;;;;;;2.78;1.13;;;26.40;65.40;;;;;;5036484;28;20025;-63
2023/09/03 11:47:40;;;;;;;0.95;0.88;;;26.40;66.50;;;;;;5034242;28;20065;-63
2023/09/03 11:50:10;;;;;;;0.88;0.88;;;26.50;65.00;;;;;;5034816;28;20114;-62
2023/09/03 11:52:36;;;;;;;0.65;0.65;;;26.50;64.10;;;;;;5034679;28;20050;-63
2023/09/03 11:55:02;;;;;;;0.70;0.70;;;26.60;64.60;;;;;;5033795;28;20428;-63
2023/09/03 11:57:28;;;;;;;2.55;0.95;;;26.60;64.70;;;;;;5034356;28;20039;-64
2023/09/03 11:59:54;;;;;;;1.63;0.95;;;26.70;64.80;;;;;;5034088;28;20135;-63
2023/09/03 12:02:21;;;;;;;1.05;1.00;;;26.70;64.50;;;;;;5032090;28;20037;-62
2023/09/03 12:04:47;;;;;;;3.30;0.80;;;26.80;64.50;;;;;;5032941;28;20068;-63
2023/09/03 12:07:17;;;;;;;0.95;0.90;;;26.80;64.00;;;;;;5034330;28;20610;-62
2023/09/03 12:09:43;;;;;;;1.38;0.90;;;26.90;63.50;;;;;;5031830;28;20034;-63
2023/09/03 12:12:09;;;;;;;1.40;1.05;;;26.90;63.10;;;;;;5029155;28;20700;-62
2023/09/03 12:14:36;;;;;;;0.95;0.70;;;26.90;62.50;;;;;;5035323;28;20037;-62
2023/09/03 12:17:04;;;;;;;1.17;0.85;;;26.90;62.60;;;;;;5031021;28;20131;-63
2023/09/03 12:19:39;;;;;;;1.17;0.80;;;27.00;62.30;;;;;;5035105;28;20041;-63
2023/09/03 12:22:05;;;;;;;0.65;0.65;;;26.90;59.20;;;;;;5034218;28;20041;-63
2023/09/03 12:24:31;;;;;;;0.88;0.80;;;27.00;61.30;;;;;;5035817;28;20045;-62
2023/09/03 12:27:04;;;;;;;1.08;0.80;;;27.00;61.10;;;;;;5033543;28;20113;-62
2023/09/03 12:29:38;;;;;;;1.33;1.02;;;27.00;60.90;;;;;;5034727;28;20045;-64
2023/09/03 12:32:07;;;;;;;2.08;0.80;;;27.00;61.30;;;;;;5028188;28;20125;-62
2023/09/03 12:34:39;;;;;;;0.90;0.90;;;27.00;61.30;;;;;;5032725;28;20132;-63
2023/09/03 12:37:06;;;;;;;1.45;0.80;;;27.00;60.20;;;;;;5036082;28;20612;-63
2023/09/03 12:39:36;;;;;;;0.93;0.82;;;27.00;60.80;;;;;;5034510;28;20159;-63
2023/09/03 12:42:07;;;;;;;1.13;0.82;;;27.00;60.20;;;;;;5047894;28;20044;-63
2023/09/03 12:44:33;;;;;;;1.60;1.00;;;27.00;60.00;;;;;;5032755;28;20033;-63
2023/09/03 12:46:59;;;;;;;0.80;0.80;;;26.90;60.70;;;;;;5036276;28;20060;-63
2023/09/03 12:49:26;;;;;;;1.83;0.90;;;26.90;61.30;;;;;;5034965;28;20408;-63